Time;durP1;ratioP1;P1;durP2;ratioP2;P2;SDS_P1;SDS_P2;PMS_P1;PMS_P2;Temp;Humidity;BMP_temperature;BMP_pressure;BME280_temperature;BME280_humidity;BME280_pressure;Samples;Min_cycle;Max_cycle;Signal;HPM_P1;HPM_P2
2023/11/29 00:03:30;;;;;;;52.30;22.70;;;;;;;-3.06;100.00;99292.56;177836;1256;57554;-82
2023/11/29 00:07:33;;;;;;;37.20;20.00;;;;;;;-3.02;100.00;99294.46;178317;1254;45994;-83
2023/11/29 00:11:36;;;;;;;37.20;19.70;;;;;;;-2.99;100.00;99297.98;178963;1256;46080;-83
2023/11/29 00:15:40;;;;;;;32.00;19.50;;;;;;;-2.88;100.00;99301.18;177949;1255;46063;-83
2023/11/29 00:19:43;;;;;;;31.10;18.20;;;;;;;-2.86;100.00;99304.39;178426;1254;46728;-80
2023/11/29 00:23:46;;;;;;;30.90;19.30;;;;;;;-2.79;100.00;99307.05;177606;1254;59610;-83
2023/11/29 00:27:49;;;;;;;39.10;22.90;;;;;;;-2.71;100.00;99308.29;177627;1255;46018;-83
2023/11/29 00:31:53;;;;;;;36.80;23.40;;;;;;;-2.60;100.00;99312.48;178503;1257;45994;-83
2023/11/29 00:35:56;;;;;;;32.70;21.60;;;;;;;-2.62;100.00;99310.48;177779;1257;45977;-81
2023/11/29 00:40:00;;;;;;;29.10;17.40;;;;;;;-2.56;100.00;99310.74;179220;1255;44650;-82
2023/11/29 00:44:03;;;;;;;73.60;35.20;;;;;;;-2.57;100.00;99309.08;179443;1259;58193;-82
2023/11/29 00:48:08;;;;;;;91.20;42.60;;;;;;;-2.50;100.00;99302.52;178508;1255;45929;-82
2023/11/29 00:52:11;;;;;;;99.00;39.00;;;;;;;-2.45;100.00;99309.05;178583;1254;46127;-82
2023/11/29 00:56:14;;;;;;;79.40;35.80;;;;;;;-2.47;100.00;99308.64;178868;1255;46091;-83
2023/11/29 01:00:18;;;;;;;42.10;25.20;;;;;;;-2.46;100.00;99315.02;178544;1254;46009;-84
2023/11/29 01:04:21;;;;;;;40.60;22.70;;;;;;;-2.60;100.00;99313.20;178025;1255;60068;-81
2023/11/29 01:08:27;;;;;;;36.20;20.10;;;;;;;-2.78;100.00;99319.68;178387;1254;46216;-82
2023/11/29 01:12:30;;;;;;;30.20;20.10;;;;;;;-2.73;100.00;99318.77;177741;1255;240088;-82
2023/11/29 01:16:33;;;;;;;25.70;18.20;;;;;;;-2.66;100.00;99318.31;178329;1255;46005;-81
2023/11/29 01:20:37;;;;;;;34.00;19.70;;;;;;;-2.71;100.00;99323.70;178236;1258;45964;-82
2023/11/29 01:24:40;;;;;;;38.30;21.20;;;;;;;-2.63;100.00;99329.62;177929;1259;58277;-83
2023/11/29 01:28:43;;;;;;;30.30;19.90;;;;;;;-2.49;100.00;99332.70;177743;1254;46111;-81
2023/11/29 01:32:46;;;;;;;112.20;45.20;;;;;;;-2.40;100.00;99337.71;178367;1254;46032;-81
2023/11/29 01:36:52;;;;;;;53.60;24.50;;;;;;;-2.35;100.00;99344.42;179635;1252;46194;-85
2023/11/29 01:40:56;;;;;;;42.40;18.30;;;;;;;-2.22;100.00;99342.80;179738;1254;46013;-85
2023/11/29 01:44:59;;;;;;;58.00;23.00;;;;;;;-2.20;100.00;99339.23;179042;1256;58509;-86
2023/11/29 01:49:03;;;;;;;30.50;16.80;;;;;;;-2.20;100.00;99336.63;178579;1254;46006;-84
2023/11/29 01:53:07;;;;;;;20.10;13.60;;;;;;;-2.19;100.00;99334.84;178992;1254;44125;-85
2023/11/29 01:57:15;;;;;;;23.70;13.40;;;;;;;-2.26;100.00;99332.05;178034;1256;46447;-84
2023/11/29 02:01:19;;;;;;;22.80;11.50;;;;;;;-2.35;100.00;99331.93;179488;1254;45841;-80
2023/11/29 02:05:22;;;;;;;22.70;11.70;;;;;;;-2.36;100.00;99330.54;180087;1255;57920;-85
2023/11/29 02:09:26;;;;;;;21.50;11.90;;;;;;;-2.35;100.00;99327.91;177886;1254;45961;-84
2023/11/29 02:13:30;;;;;;;16.20;8.80;;;;;;;-2.35;100.00;99328.61;178866;1254;46083;-85
2023/11/29 02:17:33;;;;;;;14.60;9.80;;;;;;;-2.36;100.00;99324.83;178508;1253;46080;-86
2023/11/29 02:21:37;;;;;;;22.70;11.30;;;;;;;-2.31;100.00;99322.20;178312;1253;45980;-84
2023/11/29 02:25:40;;;;;;;22.70;13.30;;;;;;;-2.38;100.00;99324.73;178361;1254;58200;-85
2023/11/29 02:29:43;;;;;;;17.20;9.70;;;;;;;-2.37;100.00;99327.30;178553;1254;45999;-84
2023/11/29 02:33:47;;;;;;;20.10;11.00;;;;;;;-2.34;100.00;99332.92;178270;1254;46179;-83
2023/11/29 02:37:51;;;;;;;17.10;8.90;;;;;;;-2.30;100.00;99329.94;178252;1254;45881;-84
2023/11/29 02:41:54;;;;;;;16.50;8.80;;;;;;;-2.38;100.00;99335.70;178143;1254;46163;-83
2023/11/29 02:45:58;;;;;;;24.20;6.70;;;;;;;-2.31;100.00;99336.07;178281;1254;58114;-85
2023/11/29 02:50:01;;;;;;;16.40;10.00;;;;;;;-2.28;100.00;99333.50;177888;1253;46097;-84
2023/11/29 02:54:04;;;;;;;13.40;7.80;;;;;;;-2.23;100.00;99335.56;177583;1256;46030;-84
2023/11/29 02:58:08;;;;;;;18.00;11.40;;;;;;;-2.29;100.00;99334.09;177875;1254;45945;-83
2023/11/29 03:02:13;;;;;;;22.80;11.00;;;;;;;-2.26;100.00;99333.95;178317;1254;44517;-83
2023/11/29 03:06:16;;;;;;;16.30;9.70;;;;;;;-2.17;100.00;99329.39;177773;1254;59449;-83
2023/11/29 03:10:20;;;;;;;22.60;11.10;;;;;;;-2.05;100.00;99329.03;177731;1254;46178;-84
2023/11/29 03:14:25;;;;;;;17.40;12.00;;;;;;;-1.89;100.00;99330.38;177479;1254;46066;-84
2023/11/29 03:18:32;;;;;;;21.50;10.70;;;;;;;-1.74;100.00;99327.27;177930;1253;45976;-82
2023/11/29 03:22:35;;;;;;;16.80;10.80;;;;;;;-1.87;100.00;99323.02;178564;1254;46087;-85
2023/11/29 03:26:43;;;;;;;18.80;9.70;;;;;;;-1.96;100.00;99317.33;177878;1254;59776;-83
2023/11/29 03:30:46;;;;;;;18.90;9.90;;;;;;;-1.91;100.00;99313.43;177748;1254;46086;-84
2023/11/29 03:34:50;;;;;;;16.80;8.70;;;;;;;-1.82;99.96;99308.04;177853;1254;46194;-83
2023/11/29 03:38:53;;;;;;;17.10;10.00;;;;;;;-1.69;99.68;99305.15;177730;1257;46213;-84
2023/11/29 03:42:56;;;;;;;16.80;9.90;;;;;;;-1.59;98.75;99306.21;177741;1254;45913;-85
2023/11/29 03:46:59;;;;;;;11.20;6.00;;;;;;;-1.63;94.04;99300.89;177833;1254;57510;-84
2023/11/29 03:51:03;;;;;;;12.20;8.50;;;;;;;-1.81;91.39;99306.55;177912;1254;46063;-83
2023/11/29 03:55:07;;;;;;;15.30;9.40;;;;;;;-1.92;91.09;99307.41;180050;1254;46062;-82
2023/11/29 03:59:10;;;;;;;18.40;8.60;;;;;;;-2.38;88.95;99316.38;179536;1254;45978;-87
2023/11/29 04:03:14;;;;;;;12.50;6.90;;;;;;;-2.54;89.83;99323.38;178753;1254;45971;-85
2023/11/29 04:07:17;;;;;;;13.90;7.90;;;;;;;-2.62;91.87;99326.29;178426;1254;59723;-86
2023/11/29 04:11:22;;;;;;;14.00;7.60;;;;;;;-2.60;94.27;99317.02;178575;1256;46808;-86
2023/11/29 04:15:25;;;;;;;10.50;5.80;;;;;;;-2.51;94.73;99311.77;178851;1255;45865;-85
2023/11/29 04:19:29;;;;;;;8.00;6.70;;;;;;;-2.49;93.39;99311.48;178664;1254;45969;-85
2023/11/29 04:23:32;;;;;;;14.10;9.50;;;;;;;-2.55;91.89;99305.69;178076;1254;46669;-84
2023/11/29 04:27:37;;;;;;;14.70;9.40;;;;;;;-2.61;92.19;99297.95;178203;1254;60502;-84
2023/11/29 04:31:40;;;;;;;21.20;9.90;;;;;;;-2.74;91.60;99301.98;179471;1254;46011;-83
2023/11/29 04:35:43;;;;;;;14.00;10.90;;;;;;;-2.88;91.85;99301.52;178431;1254;45938;-83
2023/11/29 04:39:47;;;;;;;19.20;11.90;;;;;;;-3.06;91.72;99293.41;178050;1254;45935;-83
2023/11/29 04:43:51;;;;;;;20.40;11.10;;;;;;;-3.26;91.53;99292.14;177656;1257;46543;-85
2023/11/29 04:47:54;;;;;;;23.50;14.10;;;;;;;-3.47;92.15;99293.50;177983;1253;58254;-85
2023/11/29 04:51:57;;;;;;;35.00;17.20;;;;;;;-3.62;92.41;99291.81;178097;1257;46090;-85
2023/11/29 04:56:00;;;;;;;31.00;14.10;;;;;;;-3.67;92.72;99290.83;177855;1254;46170;-83
2023/11/29 05:00:05;;;;;;;43.60;24.70;;;;;;;-3.87;92.57;99289.83;177780;1253;46014;-84
2023/11/29 05:04:08;;;;;;;57.20;34.20;;;;;;;-4.08;92.65;99289.59;177836;1253;45939;-85
2023/11/29 05:08:12;;;;;;;48.10;27.40;;;;;;;-4.20;93.39;99283.63;177823;1256;58317;-84
2023/11/29 05:12:15;;;;;;;66.50;38.30;;;;;;;-4.30;93.58;99286.44;177511;1258;46073;-80
2023/11/29 05:16:18;;;;;;;62.90;36.10;;;;;;;-4.43;93.91;99291.05;178463;1254;46035;-84
2023/11/29 05:20:22;;;;;;;40.90;24.20;;;;;;;-4.67;94.31;99297.94;177771;1256;45996;-83
2023/11/29 05:24:25;;;;;;;51.60;21.50;;;;;;;-4.82;94.28;99306.40;177971;1254;46078;-83
2023/11/29 05:28:29;;;;;;;44.60;24.00;;;;;;;-5.04;96.24;99304.02;178417;1257;57663;-84
2023/11/29 05:32:32;;;;;;;53.40;28.10;;;;;;;-5.11;95.97;99309.45;179289;1257;45962;-84
2023/11/29 05:36:35;;;;;;;36.20;23.90;;;;;;;-5.18;96.08;99313.46;178302;1254;45550;-81
2023/11/29 05:40:38;;;;;;;98.70;57.60;;;;;;;-5.28;96.46;99315.85;177916;1257;46102;-80
2023/11/29 05:44:42;;;;;;;74.60;43.90;;;;;;;-5.38;96.51;99313.09;178132;1253;46326;-82
2023/11/29 05:48:45;;;;;;;55.70;26.30;;;;;;;-5.49;96.11;99309.95;177730;1253;57736;-82
2023/11/29 05:52:48;;;;;;;42.20;21.90;;;;;;;-5.74;95.12;99306.05;178030;1254;45974;-81
2023/11/29 05:56:51;;;;;;;55.60;27.10;;;;;;;-5.84;95.37;99306.89;178510;1253;45984;-82
2023/11/29 06:00:55;;;;;;;40.30;20.40;;;;;;;-5.90;95.07;99311.37;178276;1254;46054;-83
2023/11/29 06:04:59;;;;;;;35.00;19.70;;;;;;;-6.03;94.12;99306.61;178393;1253;46023;-82
2023/11/29 06:09:08;;;;;;;40.50;18.70;;;;;;;-6.22;94.84;99309.23;178321;1256;57900;-82
2023/11/29 06:13:11;;;;;;;36.00;19.30;;;;;;;-6.34;95.18;99314.21;178159;1254;46396;-82
2023/11/29 06:17:14;;;;;;;44.80;23.40;;;;;;;-6.44;95.62;99319.66;177875;1254;46167;-81
2023/11/29 06:21:23;;;;;;;33.30;18.80;;;;;;;-6.61;95.72;99317.17;177896;1253;44728;-81
2023/11/29 06:25:27;;;;;;;36.20;15.60;;;;;;;-6.69;95.69;99325.33;178435;1254;45934;-83
2023/11/29 06:29:31;;;;;;;41.30;19.00;;;;;;;-6.80;97.40;99319.41;177882;1256;60389;-84
2023/11/29 06:33:35;;;;;;;43.70;25.20;;;;;;;-6.81;99.19;99321.84;177951;1254;46193;-82
2023/11/29 06:37:39;;;;;;;31.10;18.80;;;;;;;-6.76;99.75;99314.48;177870;1254;46146;-81
2023/11/29 06:41:42;;;;;;;39.40;20.50;;;;;;;-6.77;97.61;99319.34;177700;1254;46163;-83
2023/11/29 06:45:48;;;;;;;42.00;24.50;;;;;;;-6.86;97.10;99320.41;177788;1254;45978;-83
2023/11/29 06:49:51;;;;;;;52.90;27.00;;;;;;;-7.00;97.06;99313.53;178110;1254;58076;-82
2023/11/29 06:53:55;;;;;;;49.00;25.50;;;;;;;-7.13;97.08;99317.48;178123;1257;46060;-82
2023/11/29 06:57:59;;;;;;;38.60;22.60;;;;;;;-7.17;97.27;99321.02;178374;1254;47172;-83
2023/11/29 07:02:13;;;;;;;40.00;20.30;;;;;;;-7.11;97.96;99329.65;177898;1254;45945;-83
2023/11/29 07:06:22;;;;;;;26.00;17.10;;;;;;;-6.97;98.68;99336.22;177887;1255;46095;-83
2023/11/29 07:10:26;;;;;;;44.20;23.00;;;;;;;-6.82;99.41;99341.17;178344;1254;59209;-82
2023/11/29 07:14:30;;;;;;;43.70;24.60;;;;;;;-6.57;100.00;99343.98;177612;1254;46074;-84
2023/11/29 07:18:33;;;;;;;30.90;15.60;;;;;;;-6.31;100.00;99340.89;177853;1254;46082;-82
2023/11/29 07:22:37;;;;;;;41.20;18.80;;;;;;;-6.30;98.79;99343.95;177762;1256;45984;-83
2023/11/29 07:26:40;;;;;;;43.00;18.50;;;;;;;-6.31;98.96;99340.03;177964;1256;45852;-83
2023/11/29 07:30:44;;;;;;;39.80;22.00;;;;;;;-6.13;98.96;99335.05;177792;1254;59575;-82
2023/11/29 07:34:47;;;;;;;46.60;29.70;;;;;;;-5.95;98.29;99327.05;177448;1254;46076;-83
2023/11/29 07:38:50;;;;;;;43.10;25.40;;;;;;;-5.81;97.79;99324.05;177639;1254;45988;-83
2023/11/29 07:42:54;;;;;;;38.20;17.80;;;;;;;-5.76;97.00;99320.80;178274;1253;45974;-83
2023/11/29 07:46:57;;;;;;;38.10;19.10;;;;;;;-5.81;97.16;99319.41;178467;1254;45869;-83
2023/11/29 07:51:00;;;;;;;31.00;18.60;;;;;;;-5.69;96.96;99318.70;177808;1254;59349;-83
2023/11/29 07:55:04;;;;;;;41.00;20.90;;;;;;;-5.60;97.55;99322.23;178000;1254;46085;-82
2023/11/29 07:59:07;;;;;;;35.20;19.10;;;;;;;-5.39;98.49;99318.63;177857;1254;46018;-83
2023/11/29 08:03:10;;;;;;;59.10;27.00;;;;;;;-5.24;98.17;99313.48;178442;1254;46060;-81
2023/11/29 08:07:13;;;;;;;33.30;22.60;;;;;;;-4.97;97.86;99319.18;177648;1254;46047;-81
2023/11/29 08:11:17;;;;;;;40.50;15.50;;;;;;;-4.81;96.25;99321.95;176901;1259;59846;-81
2023/11/29 08:15:20;;;;;;;36.80;21.40;;;;;;;-4.78;96.39;99315.59;177460;1255;46143;-81
2023/11/29 08:19:23;;;;;;;48.50;29.10;;;;;;;-4.59;96.43;99313.41;177830;1254;46566;-79
2023/11/29 08:23:26;;;;;;;51.80;30.30;;;;;;;-4.38;95.65;99312.65;177315;1254;46514;-81
2023/11/29 08:27:29;;;;;;;61.30;25.40;;;;;;;-4.23;94.44;99308.33;177271;1256;46067;-80
2023/11/29 08:31:32;;;;;;;52.50;23.80;;;;;;;-4.25;94.25;99309.77;176988;1254;60000;-79
2023/11/29 08:35:36;;;;;;;49.70;25.70;;;;;;;-4.16;93.83;99314.84;177429;1254;46125;-81
2023/11/29 08:39:39;;;;;;;60.00;33.10;;;;;;;-3.92;93.78;99305.27;177179;1254;46451;-80
2023/11/29 08:43:42;;;;;;;55.00;28.20;;;;;;;-3.77;93.01;99308.18;177869;1254;46189;-78
2023/11/29 08:47:46;;;;;;;67.60;31.10;;;;;;;-3.67;92.38;99310.40;177127;1259;45968;-81
2023/11/29 08:51:49;;;;;;;70.10;35.40;;;;;;;-3.53;92.17;99314.52;176879;1254;57876;-79
2023/11/29 08:55:52;;;;;;;66.50;34.40;;;;;;;-3.36;91.57;99316.30;176924;1254;45997;-81
2023/11/29 08:59:55;;;;;;;71.10;38.30;;;;;;;-3.25;90.72;99312.06;177326;1254;45926;-80
2023/11/29 09:03:58;;;;;;;163.00;73.80;;;;;;;-3.22;90.52;99309.14;177127;1254;46108;-81
2023/11/29 09:08:03;;;;;;;110.60;59.30;;;;;;;-3.08;90.22;99307.55;177754;1252;46012;-83
2023/11/29 09:12:07;;;;;;;117.90;57.40;;;;;;;-2.95;89.73;99309.96;178290;1254;59431;-83
2023/11/29 09:16:11;;;;;;;64.50;34.50;;;;;;;-2.85;88.87;99302.61;177933;1256;45971;-84
2023/11/29 09:20:16;;;;;;;64.70;33.30;;;;;;;-2.81;88.09;99301.92;177418;1254;46054;-83
2023/11/29 09:24:21;;;;;;;48.20;24.30;;;;;;;-2.75;87.81;99294.56;178410;1254;46085;-82
2023/11/29 09:28:24;;;;;;;52.90;22.60;;;;;;;-2.75;86.80;99291.94;177943;1254;45993;-81
2023/11/29 09:32:28;;;;;;;45.90;27.20;;;;;;;-2.92;86.61;99294.38;177883;1254;57486;-83
2023/11/29 09:36:31;;;;;;;47.00;25.00;;;;;;;-2.93;87.01;99283.52;177487;1254;46036;-82
2023/11/29 09:40:35;;;;;;;56.50;29.50;;;;;;;-2.95;87.60;99280.66;177652;1257;46304;-81
2023/11/29 09:44:42;;;;;;;73.10;42.50;;;;;;;-2.94;87.68;99272.61;177667;1254;44740;-82
2023/11/29 09:48:45;;;;;;;91.20;44.80;;;;;;;-2.79;87.68;99267.09;178239;1254;45955;-82
2023/11/29 09:52:49;;;;;;;137.60;65.80;;;;;;;-2.81;87.33;99259.05;178285;1254;57919;-83
2023/11/29 09:56:52;;;;;;;100.90;50.80;;;;;;;-2.78;87.32;99255.28;177787;1254;46472;-81
2023/11/29 10:00:56;;;;;;;66.00;35.70;;;;;;;-2.65;87.28;99248.84;178366;1254;46085;-85
2023/11/29 10:05:00;;;;;;;73.80;39.70;;;;;;;-2.52;86.84;99243.77;178064;1259;46230;-81
2023/11/29 10:09:05;;;;;;;77.60;40.30;;;;;;;-2.41;85.66;99234.58;177766;1257;46106;-79
2023/11/29 10:13:08;;;;;;;91.10;46.20;;;;;;;-2.38;85.63;99231.00;176881;1257;59347;-79
2023/11/29 10:17:16;;;;;;;87.70;51.50;;;;;;;-2.36;85.22;99224.80;176185;1258;46129;-82
2023/11/29 10:21:20;;;;;;;91.50;50.30;;;;;;;-2.42;85.56;99221.80;176819;1260;45998;-82
2023/11/29 10:25:24;;;;;;;77.40;40.60;;;;;;;-2.35;85.87;99219.39;177603;1262;46204;-81
2023/11/29 10:29:27;;;;;;;86.10;42.70;;;;;;;-2.34;85.36;99217.24;177512;1259;46019;-81
2023/11/29 10:33:34;;;;;;;64.70;35.10;;;;;;;-2.24;85.16;99217.86;177123;1260;60113;-81
2023/11/29 10:37:59;;;;;;;64.00;33.70;;;;;;;-2.25;85.58;99210.56;177239;1257;45936;-81
2023/11/29 10:42:08;;;;;;;82.50;38.80;;;;;;;-2.26;86.17;99202.14;176991;1258;46098;-80
2023/11/29 10:46:34;;;;;;;90.80;44.80;;;;;;;-2.28;86.67;99199.42;177396;1257;46066;-82
2023/11/29 10:50:40;;;;;;;60.70;36.80;;;;;;;-2.15;86.71;99196.92;176578;1264;46164;-81
2023/11/29 10:54:48;;;;;;;79.40;41.70;;;;;;;-2.03;86.58;99195.51;177542;1261;57905;-81
2023/11/29 10:58:58;;;;;;;77.60;43.40;;;;;;;-1.88;86.39;99195.99;176440;1261;46118;-82
2023/11/29 11:03:03;;;;;;;66.30;33.70;;;;;;;-1.70;86.24;99196.69;176348;1258;46127;-82
2023/11/29 11:07:38;;;;;;;62.50;32.50;;;;;;;-1.58;86.02;99195.27;177977;1255;46067;-81
2023/11/29 11:11:43;;;;;;;73.50;42.10;;;;;;;-1.44;85.58;99189.71;177656;1255;45927;-81
2023/11/29 11:15:48;;;;;;;76.90;47.00;;;;;;;-1.51;84.81;99185.38;178395;1256;58185;-82
2023/11/29 11:19:51;;;;;;;70.60;40.80;;;;;;;-1.48;84.89;99180.02;177176;1255;46108;-80
2023/11/29 11:23:54;;;;;;;55.90;29.60;;;;;;;-1.48;85.02;99179.33;178143;1255;46547;-82
2023/11/29 11:27:58;;;;;;;54.40;30.20;;;;;;;-1.60;85.86;99177.09;176905;1256;46072;-82
2023/11/29 11:32:01;;;;;;;55.80;31.30;;;;;;;-1.59;86.74;99171.48;176776;1256;46082;-82
2023/11/29 11:36:05;;;;;;;66.60;34.40;;;;;;;-1.46;87.06;99158.88;176802;1256;60948;-81
2023/11/29 11:40:08;;;;;;;69.70;35.30;;;;;;;-1.34;87.10;99159.50;177018;1257;46087;-82
2023/11/29 11:44:13;;;;;;;79.40;44.20;;;;;;;-1.22;86.92;99153.15;177127;1259;46025;-81
2023/11/29 11:48:16;;;;;;;68.50;52.70;;;;;;;-0.98;86.47;99148.08;177069;1256;46147;-82
2023/11/29 11:52:19;;;;;;;57.00;31.80;;;;;;;-0.78;85.28;99145.13;177013;1256;45979;-81
2023/11/29 11:56:22;;;;;;;52.00;28.80;;;;;;;-0.66;84.72;99144.66;177372;1257;57728;-82
2023/11/29 12:00:27;;;;;;;60.60;33.20;;;;;;;-0.56;84.57;99131.08;177918;1255;46114;-81
2023/11/29 12:04:30;;;;;;;55.60;34.00;;;;;;;-0.52;84.32;99125.42;177997;1257;46093;-81
2023/11/29 12:08:35;;;;;;;53.70;33.50;;;;;;;-0.64;84.72;99118.95;177848;1260;46070;-82
2023/11/29 12:12:39;;;;;;;53.40;29.00;;;;;;;-0.65;85.57;99117.63;178337;1255;46115;-84
2023/11/29 12:16:42;;;;;;;136.30;72.30;;;;;;;-0.69;86.30;99112.96;178553;1259;59518;-82
2023/11/29 12:20:49;;;;;;;109.80;55.50;;;;;;;-0.68;86.33;99110.64;178268;1254;46409;-83
2023/11/29 12:24:52;;;;;;;61.10;37.70;;;;;;;-0.62;86.27;99109.60;176854;1254;46095;-81
2023/11/29 12:28:59;;;;;;;47.60;27.30;;;;;;;-0.57;86.11;99115.48;177112;1254;46000;-82
2023/11/29 12:33:04;;;;;;;47.10;31.30;;;;;;;-0.52;85.85;99116.77;178202;1254;44115;-82
2023/11/29 12:37:12;;;;;;;47.40;30.70;;;;;;;-0.41;85.46;99109.69;177738;1254;58526;-82
2023/11/29 12:41:15;;;;;;;61.40;38.20;;;;;;;-0.27;85.10;99103.19;177113;1254;46440;-82
2023/11/29 12:45:18;;;;;;;58.70;38.30;;;;;;;-0.11;85.28;99100.73;176594;1254;46258;-79
2023/11/29 12:49:22;;;;;;;59.80;29.90;;;;;;;0.01;84.59;99095.70;177534;1254;46751;-80
2023/11/29 12:53:25;;;;;;;61.00;33.20;;;;;;;-0.05;83.33;99088.35;178094;1255;46154;-81
2023/11/29 12:57:28;;;;;;;46.50;26.00;;;;;;;-0.20;83.27;99084.30;176805;1254;59469;-81
2023/11/29 13:01:34;;;;;;;60.70;32.50;;;;;;;-0.08;83.61;99087.86;178017;1254;46092;-82
2023/11/29 13:05:38;;;;;;;;;;;;;;;0.05;82.92;99079.06;177403;1254;46119;-80
2023/11/29 13:09:41;;;;;;;137.10;59.80;;;;;;;0.13;82.39;99082.66;177570;1254;260951;-82
2023/11/29 13:13:44;;;;;;;38.10;21.90;;;;;;;0.26;82.09;99082.05;178227;1254;45900;-82
2023/11/29 13:17:47;;;;;;;41.80;21.70;;;;;;;0.40;81.99;99080.73;177753;1254;59509;-81
2023/11/29 13:21:51;;;;;;;49.10;27.00;;;;;;;0.55;82.76;99082.63;178515;1252;46077;-83
2023/11/29 13:25:54;;;;;;;120.90;57.40;;;;;;;0.55;82.34;99087.20;179685;1254;46099;-84
2023/11/29 13:29:57;;;;;;;40.50;24.00;;;;;;;0.55;81.40;99087.86;177672;1254;45910;-84
2023/11/29 13:34:01;;;;;;;36.80;23.90;;;;;;;0.57;81.82;99078.68;178513;1254;45836;-81
2023/11/29 13:38:04;;;;;;;45.50;29.60;;;;;;;0.60;81.67;99073.97;178334;1256;58020;-80
2023/11/29 13:42:07;;;;;;;39.60;22.80;;;;;;;0.61;81.76;99066.23;177596;1259;46067;-82
2023/11/29 13:46:12;;;;;;;56.50;29.40;;;;;;;0.52;81.72;99061.20;177681;1259;46059;-81
2023/11/29 13:50:15;;;;;;;45.20;22.70;;;;;;;0.48;81.47;99059.54;177249;1259;46180;-81
2023/11/29 13:54:18;;;;;;;91.90;46.40;;;;;;;0.28;81.82;99062.27;178032;1258;45976;-81
2023/11/29 13:58:22;;;;;;;47.90;22.90;;;;;;;0.19;81.64;99065.39;176956;1256;59458;-80
2023/11/29 14:02:27;;;;;;;48.50;22.40;;;;;;;0.02;81.74;99064.10;176615;1259;46208;-80
2023/11/29 14:06:31;;;;;;;28.30;16.30;;;;;;;-0.02;82.50;99063.64;176597;1257;46483;-82
2023/11/29 14:10:34;;;;;;;23.70;14.20;;;;;;;-0.17;83.73;99066.01;176686;1259;46124;-83
2023/11/29 14:14:37;;;;;;;17.40;11.20;;;;;;;-0.20;84.35;99068.95;177359;1259;46103;-81
2023/11/29 14:18:40;;;;;;;24.30;10.20;;;;;;;-0.15;83.93;99063.48;177740;1256;60307;-83
2023/11/29 14:22:44;;;;;;;15.30;10.50;;;;;;;-0.14;83.44;99065.36;178329;1256;46147;-84
2023/11/29 14:26:47;;;;;;;17.70;11.40;;;;;;;-0.09;84.37;99069.75;178417;1259;46034;-83
2023/11/29 14:30:50;;;;;;;20.00;12.40;;;;;;;0.00;84.41;99064.38;179271;1258;45993;-82
2023/11/29 14:34:54;;;;;;;14.90;10.70;;;;;;;0.04;84.09;99066.45;178843;1259;46000;-81
2023/11/29 14:39:18;;;;;;;77.20;43.20;;;;;;;0.01;84.83;99065.39;178939;1255;59434;-86
2023/11/29 14:43:21;;;;;;;328.10;150.10;;;;;;;-0.02;84.46;99067.95;177720;1259;46073;-85
2023/11/29 14:47:25;;;;;;;353.10;172.10;;;;;;;-0.05;84.38;99069.57;177534;1259;46067;-85
2023/11/29 14:51:28;;;;;;;218.70;104.70;;;;;;;-0.11;83.76;99061.50;178151;1259;44130;-85
2023/11/29 14:55:32;;;;;;;159.80;80.20;;;;;;;-0.08;83.68;99069.04;178264;1260;46135;-85
2023/11/29 14:59:35;;;;;;;119.00;56.50;;;;;;;-0.07;84.25;99074.36;178008;1264;60241;-84
2023/11/29 15:03:39;;;;;;;41.90;24.20;;;;;;;-0.09;84.84;99064.55;177656;1260;46099;-86
2023/11/29 15:07:42;;;;;;;21.10;14.90;;;;;;;-0.10;84.97;99062.52;177841;1260;45994;-88
2023/11/29 15:11:52;;;;;;;22.10;12.50;;;;;;;-0.09;84.06;99057.94;178167;1259;45507;-88
2023/11/29 15:15:56;;;;;;;12.80;10.20;;;;;;;-0.11;83.46;99062.91;177732;1259;45946;-88
2023/11/29 15:20:00;;;;;;;17.90;11.50;;;;;;;-0.09;83.67;99055.64;178366;1259;60553;-89
2023/11/29 15:24:05;;;;;;;16.60;10.60;;;;;;;-0.05;82.84;99053.52;177898;1261;46048;-88
2023/11/29 15:28:09;;;;;;;16.60;9.90;;;;;;;-0.03;81.99;99051.45;177646;1259;46205;-88
2023/11/29 15:32:15;;;;;;;20.50;10.90;;;;;;;0.02;82.39;99054.48;177409;1259;45997;-87
2023/11/29 15:36:19;;;;;;;10.70;8.00;;;;;;;0.03;82.21;99059.86;177754;1259;46034;-86
2023/11/29 15:40:23;;;;;;;17.50;10.80;;;;;;;0.04;82.36;99065.02;177906;1259;58159;-87
2023/11/29 15:44:27;;;;;;;18.40;13.10;;;;;;;0.03;81.89;99068.41;177643;1258;46006;-86
2023/11/29 15:48:31;;;;;;;38.80;17.60;;;;;;;-0.01;82.16;99067.23;177885;1259;46307;-86
2023/11/29 15:52:37;;;;;;;34.70;18.60;;;;;;;-0.09;81.88;99067.50;177825;1262;46134;-88
2023/11/29 15:56:42;;;;;;;34.40;18.30;;;;;;;-0.14;82.02;99068.49;178070;1257;45992;-86
2023/11/29 16:00:47;;;;;;;31.80;20.50;;;;;;;-0.18;82.04;99068.89;178000;1259;58245;-85
2023/11/29 16:04:50;;;;;;;26.60;16.20;;;;;;;-0.29;81.93;99067.60;177776;1259;46191;-87
2023/11/29 16:09:14;;;;;;;22.70;13.20;;;;;;;-0.37;82.42;99063.33;177589;1260;46548;-85
2023/11/29 16:13:18;;;;;;;17.10;10.70;;;;;;;-0.36;82.75;99058.77;177641;1259;46047;-86
2023/11/29 16:17:21;;;;;;;16.60;12.00;;;;;;;-0.35;82.99;99052.58;177334;1259;46368;-86
2023/11/29 16:21:25;;;;;;;20.80;12.30;;;;;;;-0.36;82.78;99048.63;177419;1260;59305;-86
2023/11/29 16:25:29;;;;;;;24.20;14.20;;;;;;;-0.35;82.68;99052.77;177347;1260;46018;-85
2023/11/29 16:29:33;;;;;;;16.30;10.60;;;;;;;-0.36;82.78;99056.13;178330;1259;45930;-85
2023/11/29 16:33:37;;;;;;;26.70;11.90;;;;;;;-0.36;82.85;99056.64;178108;1258;46574;-87
2023/11/29 16:37:41;;;;;;;22.90;14.20;;;;;;;-0.41;83.09;99057.64;177652;1259;46009;-85
2023/11/29 16:41:44;;;;;;;21.30;11.00;;;;;;;-0.46;83.09;99059.83;177501;1262;58237;-85
2023/11/29 16:45:48;;;;;;;13.00;8.70;;;;;;;-0.50;83.54;99068.58;177856;1260;45940;-87
2023/11/29 16:49:51;;;;;;;13.30;7.60;;;;;;;-0.57;83.90;99070.50;177260;1259;46115;-85
2023/11/29 16:53:55;;;;;;;12.60;7.30;;;;;;;-0.66;84.43;99069.30;177385;1258;46083;-85
2023/11/29 16:57:58;;;;;;;16.60;9.70;;;;;;;-0.69;84.42;99069.96;177800;1260;46019;-85
2023/11/29 17:02:02;;;;;;;12.40;8.50;;;;;;;-0.73;84.37;99074.67;178584;1260;59246;-85
2023/11/29 17:06:06;;;;;;;15.10;8.50;;;;;;;-0.77;84.44;99082.55;177810;1259;44263;-84
2023/11/29 17:10:10;;;;;;;12.70;7.70;;;;;;;-0.81;84.66;99087.15;177521;1260;46006;-84
2023/11/29 17:14:14;;;;;;;12.70;7.60;;;;;;;-0.84;85.18;99082.08;177659;1260;46101;-80
2023/11/29 17:18:17;;;;;;;14.60;10.70;;;;;;;-0.86;84.80;99080.79;178231;1260;44828;-81
2023/11/29 17:22:20;;;;;;;15.50;8.30;;;;;;;-0.87;84.97;99074.41;178318;1258;58306;-82
2023/11/29 17:26:24;;;;;;;14.20;9.10;;;;;;;-0.87;84.89;99067.45;178068;1259;46098;-82
2023/11/29 17:30:27;;;;;;;17.40;7.80;;;;;;;-0.91;85.16;99062.62;177763;1260;45981;-82
2023/11/29 17:34:30;;;;;;;11.20;8.50;;;;;;;-0.91;85.83;99061.05;177983;1259;46118;-83
2023/11/29 17:38:33;;;;;;;13.00;9.00;;;;;;;-0.88;86.43;99057.59;178054;1259;46050;-82
2023/11/29 17:42:37;;;;;;;14.00;10.40;;;;;;;-0.89;86.48;99056.72;177828;1259;57757;-82
2023/11/29 17:46:41;;;;;;;35.20;18.30;;;;;;;-0.89;86.75;99061.99;177691;1260;46394;-83
2023/11/29 17:50:44;;;;;;;26.10;17.70;;;;;;;-0.85;86.68;99066.98;177602;1259;46098;-83
2023/11/29 17:54:47;;;;;;;31.80;19.00;;;;;;;-0.80;86.29;99065.34;177280;1260;46675;-82
2023/11/29 17:58:51;;;;;;;39.50;20.80;;;;;;;-0.82;85.97;99056.20;177717;1260;46204;-82
2023/11/29 18:02:54;;;;;;;18.90;10.60;;;;;;;-0.87;86.96;99051.23;178220;1260;58354;-83
2023/11/29 18:06:57;;;;;;;13.80;8.80;;;;;;;-0.91;88.32;99048.64;178202;1258;46077;-83
2023/11/29 18:11:00;;;;;;;12.70;7.80;;;;;;;-0.86;89.40;99042.15;177553;1259;46032;-82
2023/11/29 18:15:04;;;;;;;15.00;9.40;;;;;;;-0.78;90.60;99036.86;177599;1260;46071;-84
2023/11/29 18:19:08;;;;;;;13.00;8.10;;;;;;;-0.66;91.49;99030.29;178042;1259;45975;-83
2023/11/29 18:23:12;;;;;;;12.70;9.50;;;;;;;-0.55;91.71;99024.07;178058;1259;59663;-83
2023/11/29 18:27:15;;;;;;;14.30;8.10;;;;;;;-0.44;91.89;99027.30;177931;1258;46025;-81
2023/11/29 18:31:19;;;;;;;15.20;11.00;;;;;;;-0.33;92.08;99034.73;177780;1259;46103;-82